メインページ
METAR-TAF:

METAR-TAF

空港 :

ケープタウン国際空港

ケープタウン, 南アフリカ共和国

緯度: 33-59S, 経度: 018-36E, 海抜: 42m

現時点の気象観測

当レポートは55分前の12:00(UTC)に作成
南/南東の風 12kt、南東からの間で変化する
気温 29°C
湿度 18%
気圧 1019 hPa
視程10km以上
1,500メートル以下は雲なし、積乱雲なし

METAR: FACT 211200Z 16012KT 130V190 CAVOK 29/02 Q1019 NOSIG

時間: 14:55 (12:55 UTC)

予報

当レポートは2時間55分前の10:00(UTC)に作成
予報は21日の 12時(UTC)から 22日の 18時(UTC)まで有効
南/南東の風 12kt
視程10km以上
1,500メートル以下は雲なし、積乱雲なし
21日の 17時(UTC)から 21日の 19時(UTC)まで徐々に
南/南西の風 8kt
21日の 22時(UTC)から 21日の 24時(UTC)まで徐々に
変向風 3kt

TAF: FACT 211000Z 2112/2218 15012KT CAVOK BECMG 2117/2119 21008KT BECMG 2122/2124 VRB03KT TX35/2212Z TN15/2204Z

4,000以上の空港の気象観測と天気予報(METAR報とTAF報)

利用可能な観測所は地図上に黄色い丸と赤い丸で示す。

丸の上にカーソルを重ねると観測所名を参照できる。

次にクリックすると気象観測と天気予報を参照できる。

マップの切り替え:黒色「×」印の緑ボタンをクリックして拡大、「-」印の緑ボタンをクリックして縮小、緑色の三角印をクリックして隣りの地図に切り替え


METAR-TAF: